Ash Fork, AZ

4:35 AM MST on May 22, 2015 (GMT -0700)
K6QQQ Ranch, rural Coconino County, AZ, 3 miles north of Ash Fork | | Change Station
CLOSE
Current Station
Personal Weather Station
Location: Ash Fork, AZ
Elevation: 5364 ft
Nearby Weather Stations

Elev 5364 ft 35.27 °N, 112.49 °W | Updated 4 seconds ago

Partly Cloudy
Partly Cloudy
44.2 °F
Feels Like 44 °F
N
0.0
Wind Variable Wind from ENE
Gusts 0.0 mph

Today
High -- | Low -- °F
--% Chance of Precip.
Yesterday
High -- | Low -- °F
Precip. -- in
5:21 AM 7:32 PM
Waxing Crescent, 20% visible
Pressure 30.08 in
Visibility 10.0 miles
Clouds Few 3100 ft
Few 3800 ft
Windchill 44 °F
Dew Point 29 °F
Humidity 54%
Rainfall 0.00 in
Snow Depth Not available.
UV 0.0 out of 12
Pollen 5.60 out of 12
Air Quality Not available.
Flu Activity Local Activity
METAR KCMR 221115Z AUTO 00000KT 10SM FEW031 FEW038 06/M02 A3008 RMK AO2

More Conditions Fewer Conditions

Pressure 30.08 in
Visibility 10.0 miles
Clouds Few 3100 ft
Few 3800 ft
Windchill 44 °F
Dew Point 29 °F
Humidity 54%
Rainfall 0.00 in
Snow Depth Not available.
UV 0.0 out of 12
Pollen 5.60 out of 12
Air Quality Not available.
Flu Activity Local Activity
METAR KCMR 221115Z AUTO 00000KT 10SM FEW031 FEW038 06/M02 A3008 RMK AO2

More Conditions Fewer Conditions

10-Day Weather Forecast

Almanac

Astronomy

May. 22, 2015 Rise Set
Actual Time
Civil Twilight
Nautical Twilight
Astronomical Twilight
Moon
Length of Visible Light
Length of Day
Tomorrow will be .
, % of the Moon is Illuminated

Today's Extremes

State Highs State Lows

Community

WunderPhotos

Upload Photos

1,823,206 photos uploaded!

WunderBlogs® & News

Nearby

Air Quality

  Air Quality AQ Index Pollutant
Not available.

Snow Depth

Station Depth Elevation

Earthquake Activity

City Distance Mag. Time & Date
Minimum magnitude displayed is 2.5.

Coastal Water Temperatures

Place Temperature

Stations

Nearby Weather Stations

Station Location Temp. Windchill Dew Point Humidity Wind Precip. Elev Updated Type